createdAt,value
2023-03-01T00:02:06.524Z,7.18
2023-03-01T00:04:36.536Z,7.50
2023-03-01T00:07:05.027Z,7.78
2023-03-01T00:09:33.322Z,7.97
2023-03-01T00:12:01.594Z,7.32
2023-03-01T00:14:31.266Z,7.65
2023-03-01T00:16:59.649Z,7.80
2023-03-01T00:19:27.968Z,7.65
2023-03-01T00:21:56.216Z,8.13
2023-03-01T00:24:26.825Z,7.22
2023-03-01T00:26:57.449Z,7.88
2023-03-01T00:29:25.941Z,7.63
2023-03-01T00:31:55.554Z,8.13
2023-03-01T00:34:23.877Z,7.50
2023-03-01T00:36:52.217Z,7.97
2023-03-01T00:39:20.478Z,8.13
2023-03-01T00:41:48.801Z,7.97
2023-03-01T00:44:17.053Z,8.00
2023-03-01T00:46:45.367Z,8.30
2023-03-01T00:49:15.584Z,7.70
2023-03-01T00:51:44.006Z,7.55
2023-03-01T00:54:12.470Z,7.63
2023-03-01T00:56:40.737Z,7.70
2023-03-01T00:59:09.012Z,7.18
2023-03-01T01:01:37.378Z,8.35
2023-03-01T01:04:06.933Z,7.75
2023-03-01T01:06:37.286Z,8.27
2023-03-01T01:09:06.383Z,8.43
2023-03-01T01:11:36.050Z,7.80
2023-03-01T01:14:04.648Z,8.40
2023-03-01T01:16:33.418Z,7.57
2023-03-01T01:19:01.917Z,7.97
2023-03-01T01:21:30.628Z,7.60
2023-03-01T01:24:00.493Z,7.78
2023-03-01T01:26:30.290Z,7.80
2023-03-01T01:28:58.945Z,8.23
2023-03-01T01:31:27.618Z,7.72
2023-03-01T01:33:56.351Z,7.18
2023-03-01T01:36:24.987Z,7.88
2023-03-01T01:38:53.567Z,8.50
2023-03-01T01:41:24.051Z,7.53
2023-03-01T01:44:12.066Z,7.93
2023-03-01T01:46:41.271Z,8.32
2023-03-01T01:49:13.046Z,8.82
2023-03-01T01:51:42.982Z,8.10
2023-03-01T01:54:12.709Z,8.30
2023-03-01T01:56:43.483Z,8.55
2023-03-01T01:59:12.137Z,8.50
2023-03-01T02:01:40.450Z,8.63
2023-03-01T02:04:08.859Z,8.45
2023-03-01T02:06:39.673Z,8.07
2023-03-01T02:09:10.399Z,8.73
2023-03-01T02:11:38.855Z,9.00
2023-03-01T02:14:08.826Z,8.52
2023-03-01T02:16:37.590Z,7.97
2023-03-01T02:19:07.433Z,8.35
2023-03-01T02:21:41.530Z,7.80
2023-03-01T02:24:13.275Z,8.52
2023-03-01T02:26:45.036Z,7.90
2023-03-01T02:29:14.774Z,7.55
2023-03-01T02:31:45.941Z,8.60
2023-03-01T02:34:14.940Z,8.18
2023-03-01T02:36:45.624Z,8.30
2023-03-01T02:39:18.442Z,8.43
2023-03-01T02:41:49.447Z,8.18
2023-03-01T02:44:19.277Z,8.50
2023-03-01T02:46:49.545Z,8.88
2023-03-01T02:49:22.209Z,8.68
2023-03-01T02:51:55.462Z,9.05
2023-03-01T02:54:26.792Z,8.77
2023-03-01T02:56:55.432Z,9.02
2023-03-01T02:59:27.396Z,8.73
2023-03-01T03:01:55.736Z,8.27
2023-03-01T03:04:24.379Z,9.30
2023-03-01T03:06:53.335Z,9.20
2023-03-01T03:09:22.040Z,9.05
2023-03-01T03:11:50.332Z,9.20
2023-03-01T03:14:19.239Z,8.98
2023-03-01T03:16:51.735Z,8.93
2023-03-01T03:19:21.360Z,8.70
2023-03-01T03:21:50.392Z,8.55
2023-03-01T03:24:19.207Z,8.23
2023-03-01T03:26:47.484Z,9.10
2023-03-01T03:29:15.752Z,9.18
2023-03-01T03:31:44.041Z,9.02
2023-03-01T03:34:18.778Z,9.50
2023-03-01T03:36:47.217Z,9.00
2023-03-01T03:39:15.588Z,8.32
2023-03-01T03:41:43.889Z,8.57
2023-03-01T03:44:12.135Z,9.20
2023-03-01T03:46:40.432Z,8.52
2023-03-01T03:49:08.678Z,10.27
2023-03-01T03:51:38.324Z,9.55
2023-03-01T03:54:06.600Z,9.02
2023-03-01T03:56:35.786Z,9.32
2023-03-01T03:59:04.082Z,9.65
2023-03-01T04:01:32.355Z,9.52
2023-03-01T04:04:04.981Z,9.80
2023-03-01T04:06:33.494Z,9.88
2023-03-01T04:09:03.856Z,8.45
2023-03-01T04:11:32.487Z,8.57
2023-03-01T04:14:01.400Z,9.32
2023-03-01T04:16:30.437Z,9.45
2023-03-01T04:19:00.510Z,9.30
2023-03-01T04:21:28.802Z,9.68
2023-03-01T04:23:57.647Z,9.45
2023-03-01T04:26:27.839Z,9.50
2023-03-01T04:28:56.128Z,9.88
2023-03-01T04:31:24.411Z,9.68
2023-03-01T04:33:53.837Z,9.10
2023-03-01T04:36:23.481Z,9.50
2023-03-01T04:38:52.786Z,8.32
2023-03-01T04:41:22.050Z,9.32
2023-03-01T04:43:51.874Z,9.90
2023-03-01T04:46:21.320Z,9.07
2023-03-01T04:48:49.727Z,9.55
2023-03-01T04:51:19.186Z,9.48
2023-03-01T04:53:47.442Z,9.57
2023-03-01T04:56:15.891Z,8.75
2023-03-01T04:58:44.640Z,10.20
2023-03-01T05:01:16.954Z,9.73
2023-03-01T05:03:45.780Z,9.30
2023-03-01T05:06:14.266Z,10.32
2023-03-01T05:08:43.368Z,9.18
2023-03-01T05:11:12.157Z,8.70
2023-03-01T05:13:41.039Z,9.40
2023-03-01T05:16:12.017Z,9.50
2023-03-01T05:18:42.406Z,9.52
2023-03-01T05:21:11.694Z,9.75
2023-03-01T05:23:40.458Z,9.77
2023-03-01T05:26:16.286Z,9.65
2023-03-01T05:28:57.548Z,9.95
2023-03-01T05:31:25.964Z,9.55
2023-03-01T05:33:55.691Z,9.95
2023-03-01T05:36:24.112Z,10.18
2023-03-01T05:38:52.554Z,10.38
2023-03-01T05:41:20.975Z,9.57
2023-03-01T05:43:49.409Z,9.80
2023-03-01T05:46:17.827Z,9.43
2023-03-01T05:48:46.225Z,9.45
2023-03-01T05:51:15.983Z,9.73
2023-03-01T05:53:44.381Z,9.05
2023-03-01T05:56:12.717Z,9.70
2023-03-01T05:58:41.095Z,9.07
2023-03-01T06:01:13.836Z,10.27
2023-03-01T06:03:42.224Z,9.82
2023-03-01T06:06:10.580Z,10.02
2023-03-01T06:08:40.371Z,9.38
2023-03-01T06:11:08.830Z,8.95
2023-03-01T06:13:37.128Z,10.75
2023-03-01T06:16:12.622Z,9.23
2023-03-01T06:18:44.257Z,9.55
2023-03-01T06:21:14.692Z,10.57
2023-03-01T06:23:44.542Z,10.50
2023-03-01T06:26:13.043Z,10.20
2023-03-01T06:28:41.405Z,10.30
2023-03-01T06:31:10.416Z,8.70
2023-03-01T06:33:38.850Z,10.40
2023-03-01T06:36:07.612Z,9.80
2023-03-01T06:38:36.458Z,9.90
2023-03-01T06:41:06.438Z,9.77
2023-03-01T06:43:35.276Z,9.55
2023-03-01T06:46:06.386Z,8.35
2023-03-01T06:48:34.961Z,9.27
2023-03-01T06:51:03.491Z,9.68
2023-03-01T06:53:32.152Z,8.85
2023-03-01T06:56:01.227Z,10.23
2023-03-01T06:58:31.073Z,9.82
2023-03-01T07:00:59.401Z,9.57
2023-03-01T07:03:27.812Z,9.85
2023-03-01T07:05:56.217Z,9.65
2023-03-01T07:08:24.522Z,9.38
2023-03-01T07:10:57.238Z,9.60
2023-03-01T07:13:25.748Z,9.43
2023-03-01T07:15:55.465Z,10.52
2023-03-01T07:18:24.193Z,9.70
2023-03-01T07:20:52.568Z,9.57
2023-03-01T07:23:21.057Z,8.52
2023-03-01T07:25:54.149Z,8.73
2023-03-01T07:28:22.553Z,8.95
2023-03-01T07:30:50.980Z,10.05
2023-03-01T07:33:20.937Z,9.68
2023-03-01T07:35:49.552Z,9.80
2023-03-01T07:38:17.933Z,9.82
2023-03-01T07:40:46.327Z,10.70
2023-03-01T07:43:14.648Z,10.35
2023-03-01T07:45:43.123Z,9.82
2023-03-01T07:48:11.770Z,10.82
2023-03-01T07:50:41.462Z,10.63
2023-03-01T07:53:10.184Z,9.82
2023-03-01T07:55:38.619Z,10.43
2023-03-01T07:58:12.749Z,10.75
2023-03-01T08:00:44.824Z,9.15
2023-03-01T08:03:13.282Z,9.13
2023-03-01T08:05:44.414Z,9.13
2023-03-01T08:08:12.761Z,10.38
2023-03-01T08:10:41.058Z,10.93
2023-03-01T08:13:09.427Z,10.45
2023-03-01T08:15:37.895Z,10.05
2023-03-01T08:18:07.498Z,10.25
2023-03-01T08:20:35.903Z,9.85
2023-03-01T08:23:05.580Z,10.13
2023-03-01T08:25:34.256Z,10.52
2023-03-01T08:28:02.596Z,10.05
2023-03-01T08:30:30.912Z,10.18
2023-03-01T08:32:59.431Z,10.50
2023-03-01T08:35:28.018Z,10.10
2023-03-01T08:37:56.418Z,9.60
2023-03-01T08:40:26.116Z,10.63
2023-03-01T08:42:54.415Z,10.27
2023-03-01T08:45:22.787Z,10.50
2023-03-01T08:47:54.559Z,11.13
2023-03-01T08:50:25.246Z,10.63
2023-03-01T08:52:53.576Z,10.40
2023-03-01T08:55:21.922Z,10.20
2023-03-01T08:57:51.634Z,10.65
2023-03-01T09:00:20.643Z,10.75
2023-03-01T09:02:49.092Z,11.40
2023-03-01T09:05:20.000Z,10.88
2023-03-01T09:07:48.804Z,11.00
2023-03-01T09:10:19.291Z,11.32
2023-03-01T09:12:47.833Z,11.45
2023-03-01T09:15:17.803Z,11.00
2023-03-01T09:17:46.196Z,11.00
2023-03-01T09:20:14.693Z,10.90
2023-03-01T09:22:43.081Z,12.60
2023-03-01T09:25:11.422Z,12.05
2023-03-01T09:27:39.843Z,12.20
2023-03-01T09:30:08.904Z,11.90
2023-03-01T09:32:43.476Z,13.07
2023-03-01T09:35:11.874Z,11.38
2023-03-01T09:37:43.731Z,12.48
2023-03-01T09:40:16.617Z,11.85
2023-03-01T09:42:55.489Z,12.85
2023-03-01T09:45:30.101Z,12.00
2023-03-01T09:48:00.329Z,11.98
2023-03-01T09:50:30.855Z,11.98
2023-03-01T09:53:03.239Z,12.80
2023-03-01T09:55:33.824Z,12.70
2023-03-01T09:58:07.140Z,11.75
2023-03-01T10:00:39.328Z,12.10
2023-03-01T10:03:14.769Z,12.65
2023-03-01T10:05:46.133Z,13.32
2023-03-01T10:08:30.306Z,12.85
2023-03-01T10:10:58.745Z,12.70
2023-03-01T10:13:29.440Z,11.35
2023-03-01T10:15:59.081Z,12.77
2023-03-01T10:18:30.139Z,11.65
2023-03-01T10:21:00.245Z,12.75
2023-03-01T10:23:35.653Z,12.18
2023-03-01T10:26:09.294Z,12.73
2023-03-01T10:28:42.664Z,12.02
2023-03-01T10:31:14.430Z,11.82
2023-03-01T10:33:44.222Z,11.43
2023-03-01T10:36:12.687Z,11.95
2023-03-01T10:38:53.183Z,12.75
2023-03-01T10:41:22.603Z,11.82
2023-03-01T10:43:52.506Z,12.38
2023-03-01T10:46:25.288Z,12.15
2023-03-01T10:49:11.675Z,11.80
2023-03-01T10:51:42.224Z,11.70
2023-03-01T10:54:18.729Z,12.45
2023-03-01T10:56:51.277Z,11.50
2023-03-01T10:59:25.326Z,12.13
2023-03-01T11:02:12.117Z,11.23
2023-03-01T11:04:59.026Z,12.20
2023-03-01T11:07:28.937Z,11.00
2023-03-01T11:09:58.214Z,11.23
2023-03-01T11:12:27.013Z,11.18
2023-03-01T11:14:56.480Z,11.13
2023-03-01T11:17:27.645Z,10.35
2023-03-01T11:20:09.256Z,9.93
2023-03-01T17:22:54.095Z,8.30
2023-03-01T17:25:25.336Z,8.18
2023-03-01T17:27:53.974Z,8.52
2023-03-01T17:30:22.464Z,8.63
2023-03-01T17:32:50.856Z,8.00
2023-03-01T17:35:19.281Z,8.20
2023-03-01T17:37:47.664Z,9.00
2023-03-01T17:40:17.497Z,8.85
2023-03-01T17:42:46.062Z,8.15
2023-03-01T17:45:15.008Z,8.23
2023-03-01T17:47:43.869Z,8.27
2023-03-01T17:50:13.252Z,9.00
2023-03-01T17:52:42.695Z,8.30
2023-03-01T17:55:12.571Z,8.65
2023-03-01T17:57:42.651Z,8.60
2023-03-01T18:00:12.827Z,8.73
2023-03-01T18:02:43.277Z,8.48
2023-03-01T18:05:12.633Z,8.60
2023-03-01T18:07:41.268Z,8.48
2023-03-01T18:10:10.264Z,7.90
2023-03-01T18:12:39.046Z,8.32
2023-03-01T18:15:09.521Z,8.43
2023-03-01T18:17:37.925Z,8.00
2023-03-01T18:20:07.134Z,8.52
2023-03-01T18:22:35.550Z,7.65
2023-03-01T18:25:04.876Z,7.97
2023-03-01T18:27:33.644Z,8.95
2023-03-01T18:30:02.372Z,8.50
2023-03-01T18:32:34.009Z,8.60
2023-03-01T18:35:02.459Z,7.85
2023-03-01T18:37:30.777Z,8.75
2023-03-01T18:39:59.191Z,8.32
2023-03-01T18:42:30.570Z,8.52
2023-03-01T18:44:59.196Z,7.43
2023-03-01T18:47:27.523Z,8.30
2023-03-01T18:49:57.264Z,8.65
2023-03-01T18:52:25.583Z,8.38
2023-03-01T18:54:54.264Z,7.95
2023-03-01T18:57:22.669Z,8.15
2023-03-01T18:59:51.208Z,8.13
2023-03-01T19:02:19.590Z,7.60
2023-03-01T19:04:48.036Z,9.07
2023-03-01T19:07:17.755Z,8.68
2023-03-01T19:09:46.254Z,14.20
2023-03-01T19:12:14.662Z,16.85
2023-03-01T19:14:43.210Z,9.05
2023-03-01T19:17:11.537Z,8.63
2023-03-01T19:19:40.815Z,8.00
2023-03-01T19:22:09.380Z,7.70
2023-03-01T19:24:41.450Z,8.20
2023-03-01T19:27:09.900Z,7.85
2023-03-01T19:29:40.812Z,8.18
2023-03-01T19:32:09.230Z,8.98
2023-03-01T19:34:40.078Z,9.05
2023-03-01T19:37:09.532Z,8.23
2023-03-01T19:39:37.956Z,8.05
2023-03-01T19:42:07.736Z,8.40
2023-03-01T19:44:36.217Z,8.50
2023-03-01T19:47:04.894Z,8.25
2023-03-01T19:49:33.240Z,8.40
2023-03-01T19:52:01.600Z,7.97
2023-03-01T19:54:32.445Z,7.85
2023-03-01T19:57:00.836Z,8.25
2023-03-01T19:59:30.676Z,16.65
2023-03-01T20:01:59.077Z,9.60
2023-03-01T20:04:27.508Z,8.57
2023-03-01T20:06:55.874Z,8.18
2023-03-01T20:09:24.193Z,8.02
2023-03-01T20:11:52.547Z,8.23
2023-03-01T20:14:23.712Z,8.07
2023-03-01T20:16:54.182Z,7.70
2023-03-01T20:19:22.695Z,9.27
2023-03-01T20:21:51.101Z,8.52
2023-03-01T20:24:19.443Z,8.35
2023-03-01T20:26:47.801Z,8.82
2023-03-01T20:29:16.280Z,8.65
2023-03-01T20:31:44.743Z,9.40
2023-03-01T20:34:14.464Z,8.50
2023-03-01T20:36:44.160Z,9.23
2023-03-01T20:39:12.907Z,10.18
2023-03-01T20:41:41.225Z,9.30
2023-03-01T20:44:09.971Z,9.23
2023-03-01T20:46:39.095Z,9.90
2023-03-01T20:49:07.825Z,10.38
2023-03-01T20:51:37.543Z,9.93
2023-03-01T20:54:06.571Z,9.35
2023-03-01T20:56:37.911Z,10.18
2023-03-01T20:59:11.071Z,9.15
2023-03-01T21:01:40.132Z,8.30
2023-03-01T21:04:09.136Z,9.43
2023-03-01T21:06:39.255Z,8.85
2023-03-01T21:09:08.053Z,9.02
2023-03-01T21:11:36.394Z,8.73
2023-03-01T21:14:06.050Z,8.90
2023-03-01T21:16:35.504Z,7.95
2023-03-01T21:19:05.441Z,9.48
2023-03-01T21:21:33.833Z,9.00
2023-03-01T21:24:03.853Z,9.02
2023-03-01T21:26:33.149Z,8.80
2023-03-01T21:29:02.390Z,9.30
2023-03-01T21:31:33.689Z,9.02
2023-03-01T21:34:04.029Z,8.65
2023-03-01T21:36:33.280Z,9.18
2023-03-01T21:39:02.789Z,8.80
2023-03-01T21:41:38.520Z,8.25
2023-03-01T21:44:07.893Z,8.60
2023-03-01T21:46:37.475Z,8.88
2023-03-01T21:49:07.285Z,8.90
2023-03-01T21:51:37.137Z,9.35
2023-03-01T21:54:06.473Z,8.93
2023-03-01T21:56:38.973Z,7.63
2023-03-01T21:59:16.283Z,8.57
2023-03-01T22:01:44.642Z,8.32
2023-03-01T22:04:13.538Z,8.52
2023-03-01T22:06:43.410Z,9.27
2023-03-01T22:09:13.795Z,7.97
2023-03-01T22:11:44.360Z,8.52
2023-03-01T22:14:13.898Z,8.07
2023-03-01T22:16:45.476Z,8.13
2023-03-01T22:19:16.098Z,7.82
2023-03-01T22:21:45.550Z,8.02
2023-03-01T22:24:16.939Z,8.38
2023-03-01T22:26:47.671Z,8.18
2023-03-01T22:29:18.242Z,8.60
2023-03-01T22:31:48.960Z,8.38
2023-03-01T22:34:18.073Z,9.05
2023-03-01T22:36:46.796Z,7.97
2023-03-01T22:39:16.493Z,9.20
2023-03-01T22:41:46.160Z,9.88
2023-03-01T22:44:16.905Z,8.82
2023-03-01T22:46:48.039Z,9.20
2023-03-01T22:49:16.408Z,9.38
2023-03-01T22:51:47.346Z,8.48
2023-03-01T22:54:16.211Z,9.63
2023-03-01T22:56:44.719Z,8.55
2023-03-01T22:59:15.833Z,9.35
2023-03-01T23:01:47.581Z,8.02
2023-03-01T23:04:16.547Z,8.10
2023-03-01T23:06:51.612Z,8.10
2023-03-01T23:09:20.625Z,7.82
2023-03-01T23:11:51.309Z,9.52
2023-03-01T23:14:20.673Z,9.80
2023-03-01T23:16:50.545Z,9.05
2023-03-01T23:19:19.049Z,9.05
2023-03-01T23:21:50.239Z,8.85
2023-03-01T23:24:20.147Z,9.07
2023-03-01T23:26:53.947Z,8.65
2023-03-01T23:29:22.494Z,7.25
2023-03-01T23:31:52.212Z,8.63
2023-03-01T23:34:20.903Z,8.85
2023-03-01T23:36:53.342Z,7.60
2023-03-01T23:39:22.109Z,8.55
2023-03-01T23:41:50.658Z,7.68
2023-03-01T23:44:19.819Z,8.10
2023-03-01T23:46:48.861Z,8.30
2023-03-01T23:49:40.634Z,8.75
2023-03-01T23:52:08.990Z,7.60
2023-03-01T23:54:37.328Z,8.43
2023-03-01T23:57:05.637Z,8.35
2023-03-01T23:59:33.954Z,8.40
